createdAt,value
2019-04-22T00:00:53.759Z,15.00
2019-04-22T00:03:33.109Z,15.00
2019-04-22T00:06:14.709Z,14.90
2019-04-22T00:08:50.642Z,15.00
2019-04-22T00:11:27.207Z,15.00
2019-04-22T00:13:51.980Z,15.00
2019-04-22T00:16:27.982Z,15.00
2019-04-22T00:19:11.469Z,15.00
2019-04-22T00:21:25.759Z,15.00
2019-04-22T00:23:59.794Z,14.90
2019-04-22T00:26:29.011Z,14.90
2019-04-22T00:28:58.211Z,14.90
2019-04-22T00:31:31.680Z,14.90
2019-04-22T00:33:59.198Z,14.90
2019-04-22T00:36:38.135Z,14.80
2019-04-22T00:39:07.141Z,14.80
2019-04-22T00:41:38.665Z,14.80
2019-04-22T00:44:13.326Z,14.80
2019-04-22T00:46:42.990Z,14.80
2019-04-22T00:49:52.929Z,14.80
2019-04-22T00:51:44.782Z,14.70
2019-04-22T00:54:08.554Z,14.80
2019-04-22T00:56:40.966Z,14.80
2019-04-22T00:59:13.199Z,14.80
2019-04-22T01:01:50.529Z,14.80
2019-04-22T01:04:23.112Z,14.70
2019-04-22T01:06:44.543Z,14.60
2019-04-22T01:09:17.340Z,14.60
2019-04-22T01:11:47.163Z,14.60
2019-04-22T01:14:21.660Z,14.50
2019-04-22T01:16:53.785Z,14.50
2019-04-22T01:19:28.018Z,14.40
2019-04-22T01:21:50.771Z,14.40
2019-04-22T01:24:22.040Z,14.50
2019-04-22T01:26:52.696Z,14.40
2019-04-22T01:29:16.845Z,14.40
2019-04-22T01:31:38.232Z,14.40
2019-04-22T01:34:23.238Z,14.30
2019-04-22T01:36:57.719Z,14.30
2019-04-22T01:39:37.565Z,14.20
2019-04-22T01:42:06.192Z,14.20
2019-04-22T01:47:12.786Z,14.20
2019-04-22T01:49:39.827Z,14.00
2019-04-22T01:52:11.535Z,14.00
2019-04-22T01:54:46.758Z,14.00
2019-04-22T01:57:11.785Z,13.90
2019-04-22T01:59:35.569Z,14.00
2019-04-22T02:02:17.191Z,14.00
2019-04-22T02:04:53.236Z,14.00
2019-04-22T02:07:16.897Z,14.00
2019-04-22T02:09:49.519Z,14.00
2019-04-22T02:12:21.098Z,14.00
2019-04-22T02:14:53.978Z,13.90
2019-04-22T02:17:26.940Z,13.90
2019-04-22T02:22:30.142Z,13.90
2019-04-22T02:24:51.049Z,13.90
2019-04-22T02:27:35.224Z,13.90
2019-04-22T02:29:54.609Z,13.90
2019-04-22T02:35:03.546Z,13.80
2019-04-22T02:37:29.654Z,13.80
2019-04-22T02:40:14.420Z,13.80
2019-04-22T02:42:52.173Z,13.90
2019-04-22T02:44:58.737Z,13.90
2019-04-22T02:47:33.541Z,13.90
2019-04-22T02:50:06.018Z,13.80
2019-04-22T02:52:37.427Z,13.80
2019-04-22T02:55:21.063Z,13.80
2019-04-22T02:57:43.950Z,13.80
2019-04-22T03:00:29.353Z,13.70
2019-04-22T03:03:15.969Z,13.70
2019-04-22T03:05:23.386Z,13.70
2019-04-22T03:07:55.886Z,13.70
2019-04-22T03:10:20.568Z,13.60
2019-04-22T03:12:51.622Z,13.60
2019-04-22T03:15:12.137Z,13.60
2019-04-22T03:17:53.926Z,13.60
2019-04-22T03:20:22.090Z,13.60
2019-04-22T03:22:55.102Z,13.60
2019-04-22T03:25:51.476Z,13.60
2019-04-22T03:27:48.411Z,13.70
2019-04-22T03:30:47.455Z,13.60
2019-04-22T03:38:14.363Z,13.30
2019-04-22T03:40:37.165Z,13.30
2019-04-22T03:50:27.999Z,13.50
2019-04-22T03:53:09.255Z,13.40
2019-04-22T03:55:38.366Z,13.30
2019-04-22T03:58:01.236Z,13.20
2019-04-22T04:00:47.637Z,13.30
2019-04-22T04:13:19.688Z,13.30
2019-04-22T04:15:40.202Z,13.40
2019-04-22T04:18:20.763Z,13.40
2019-04-22T04:28:43.838Z,13.40
2019-04-22T04:31:11.432Z,13.40
2019-04-22T04:33:29.158Z,13.40
2019-04-22T04:38:34.024Z,13.40
2019-04-22T04:41:03.689Z,13.40
2019-04-22T04:43:41.501Z,13.40
2019-04-22T04:46:07.308Z,13.40
2019-04-22T04:48:46.676Z,13.50
2019-04-22T04:53:31.824Z,13.60
2019-04-22T04:56:13.920Z,13.50
2019-04-22T04:58:56.554Z,13.50
2019-04-22T05:01:20.986Z,13.60
2019-04-22T05:03:49.682Z,13.60
2019-04-22T05:06:12.923Z,13.50
2019-04-22T05:09:08.535Z,13.60
2019-04-22T05:11:16.373Z,13.70
2019-04-22T05:16:25.535Z,13.80
2019-04-22T05:18:49.134Z,13.80
2019-04-22T05:21:22.298Z,13.80
2019-04-22T05:23:48.827Z,13.70
2019-04-22T05:26:22.080Z,13.70
2019-04-22T05:28:42.312Z,13.70
2019-04-22T05:31:30.918Z,13.80
2019-04-22T05:33:50.483Z,13.80
2019-04-22T05:36:26.460Z,13.90
2019-04-22T05:41:17.961Z,14.00
2019-04-22T05:43:50.226Z,14.00
2019-04-22T05:46:22.696Z,14.10
2019-04-22T05:48:56.585Z,14.20
2019-04-22T05:51:27.820Z,14.30
2019-04-22T05:53:57.452Z,14.30
2019-04-22T05:56:33.942Z,14.30
2019-04-22T05:59:02.401Z,14.30
2019-04-22T06:01:38.330Z,14.30
2019-04-22T06:06:40.946Z,14.40
2019-04-22T06:09:06.947Z,14.50
2019-04-22T06:14:02.631Z,14.80
2019-04-22T06:19:14.311Z,15.00
2019-04-22T06:21:44.777Z,15.10
2019-04-22T06:24:20.143Z,15.20
2019-04-22T06:29:15.017Z,15.50
2019-04-22T06:36:51.103Z,15.80
2019-04-22T06:39:24.212Z,15.90
2019-04-22T06:44:26.519Z,16.20
2019-04-22T06:46:52.615Z,16.30
2019-04-22T06:49:27.335Z,16.40
2019-04-22T06:51:55.573Z,16.40
2019-04-22T06:54:28.933Z,16.40
2019-04-22T06:56:55.914Z,16.60
2019-04-22T06:59:31.164Z,16.70
2019-04-22T07:02:06.431Z,16.80
2019-04-22T07:04:31.736Z,16.80
2019-04-22T07:07:02.267Z,16.90
2019-04-22T07:09:41.413Z,16.90
2019-04-22T07:12:05.001Z,17.00
2019-04-22T07:14:37.046Z,17.20
2019-04-22T07:17:03.971Z,17.30
2019-04-22T07:19:40.851Z,17.40
2019-04-22T07:22:13.521Z,17.40
2019-04-22T07:24:46.164Z,17.50
2019-04-22T07:27:10.523Z,17.60
2019-04-22T07:29:46.730Z,17.70
2019-04-22T07:32:12.946Z,17.80
2019-04-22T07:34:59.296Z,18.00
2019-04-22T07:39:46.020Z,18.00
2019-04-22T07:42:22.755Z,18.10
2019-04-22T07:44:51.243Z,18.40
2019-04-22T07:47:29.592Z,18.50
2019-04-22T07:49:51.009Z,18.70
2019-04-22T07:52:22.586Z,18.80
2019-04-22T07:54:54.172Z,18.90
2019-04-22T07:57:31.542Z,19.00
2019-04-22T07:59:57.801Z,19.10
2019-04-22T08:02:23.700Z,19.20
2019-04-22T08:05:07.435Z,19.40
2019-04-22T08:07:29.942Z,19.40
2019-04-22T08:10:17.268Z,19.60
2019-04-22T08:12:44.233Z,19.80
2019-04-22T08:15:05.682Z,20.00
2019-04-22T08:20:10.732Z,20.50
2019-04-22T08:22:49.025Z,20.80
2019-04-22T08:25:10.156Z,20.70
2019-04-22T08:27:46.867Z,20.80
2019-04-22T08:32:45.941Z,20.90
2019-04-22T08:35:19.969Z,21.00
2019-04-22T08:37:51.269Z,21.20
2019-04-22T08:40:21.476Z,21.30
2019-04-22T08:42:55.487Z,21.30
2019-04-22T08:45:33.361Z,21.30
2019-04-22T08:47:55.277Z,21.40
2019-04-22T08:50:28.369Z,21.70
2019-04-22T08:53:06.425Z,22.00
2019-04-22T08:55:40.521Z,22.10
2019-04-22T09:00:43.614Z,22.50
2019-04-22T09:03:10.994Z,22.50
2019-04-22T09:05:59.118Z,22.80
2019-04-22T09:08:13.901Z,22.80
2019-04-22T09:10:46.841Z,22.70
2019-04-22T09:13:17.136Z,22.70
2019-04-22T09:15:49.574Z,22.80
2019-04-22T09:18:25.467Z,23.00
2019-04-22T09:21:04.293Z,23.10
2019-04-22T09:23:30.204Z,23.20
2019-04-22T09:25:59.912Z,23.40
2019-04-22T09:28:31.133Z,23.60
2019-04-22T09:31:01.823Z,23.90
2019-04-22T09:33:34.395Z,24.10
2019-04-22T09:36:11.645Z,23.90
2019-04-22T09:41:06.565Z,23.70
2019-04-22T09:43:44.111Z,23.90
2019-04-22T09:46:08.547Z,24.00
2019-04-22T09:48:46.410Z,24.00
2019-04-22T09:51:05.878Z,24.20
2019-04-22T09:53:47.274Z,24.30
2019-04-22T09:56:12.223Z,24.50
2019-04-22T09:58:44.091Z,24.50
2019-04-22T10:03:54.523Z,24.80
2019-04-22T10:06:22.864Z,24.80
2019-04-22T10:11:26.968Z,24.70
2019-04-22T10:13:53.810Z,24.70
2019-04-22T10:16:27.019Z,24.80
2019-04-22T10:18:52.818Z,25.30
2019-04-22T10:21:35.276Z,25.40
2019-04-22T10:23:59.604Z,25.30
2019-04-22T10:26:28.294Z,25.20
2019-04-22T10:29:01.083Z,25.30
2019-04-22T10:31:32.882Z,25.60
2019-04-22T10:33:49.612Z,25.80
2019-04-22T10:36:05.806Z,26.10
2019-04-22T10:38:36.625Z,26.20
2019-04-22T10:41:06.055Z,26.30
2019-04-22T10:43:35.330Z,26.50
2019-04-22T10:46:06.127Z,26.50
2019-04-22T10:48:36.605Z,26.70
2019-04-22T10:51:06.593Z,26.60
2019-04-22T10:53:37.400Z,26.40
2019-04-22T10:56:07.252Z,26.30
2019-04-22T10:58:36.594Z,26.20
2019-04-22T11:01:07.325Z,26.30
2019-04-22T11:03:37.287Z,26.40
2019-04-22T11:06:07.453Z,26.40
2019-04-22T11:08:44.465Z,26.70
2019-04-22T11:11:21.447Z,26.80
2019-04-22T11:13:39.878Z,26.80
2019-04-22T11:16:09.715Z,27.00
2019-04-22T11:18:39.096Z,27.00
2019-04-22T11:21:09.615Z,27.30
2019-04-22T11:23:40.562Z,27.40
2019-04-22T11:26:10.182Z,27.50
2019-04-22T11:28:39.467Z,27.50
2019-04-22T11:31:10.373Z,27.50
2019-04-22T11:33:40.642Z,27.70
2019-04-22T11:36:10.270Z,28.00
2019-04-22T11:38:48.649Z,28.20
2019-04-22T11:41:10.810Z,28.50
2019-04-22T11:43:41.186Z,28.80
2019-04-22T11:46:11.472Z,28.90
2019-04-22T11:48:42.415Z,28.70
2019-04-22T11:51:11.868Z,28.80
2019-04-22T11:53:41.132Z,29.00
2019-04-22T11:56:11.141Z,28.90
2019-04-22T11:58:40.719Z,29.00
2019-04-22T12:01:10.756Z,29.10
2019-04-22T12:03:41.685Z,29.00
2019-04-22T12:06:11.370Z,29.00
2019-04-22T12:08:41.562Z,28.90
2019-04-22T12:11:11.603Z,29.10
2019-04-22T12:13:42.211Z,29.30
2019-04-22T12:16:11.706Z,29.50
2019-04-22T12:18:40.963Z,29.60
2019-04-22T12:21:10.943Z,29.40
2019-04-22T12:23:41.255Z,29.20
2019-04-22T12:26:14.101Z,28.90
2019-04-22T12:28:41.815Z,28.80
2019-04-22T12:31:11.311Z,28.90
2019-04-22T12:33:41.325Z,28.80
2019-04-22T12:36:12.425Z,28.80
2019-04-22T12:38:42.178Z,28.70
2019-04-22T12:41:12.609Z,28.40
2019-04-22T12:43:43.085Z,28.70
2019-04-22T12:46:12.619Z,28.90
2019-04-22T12:48:43.233Z,28.90
2019-04-22T12:51:13.361Z,29.30
2019-04-22T12:53:44.484Z,29.60
2019-04-22T12:56:15.192Z,29.70
2019-04-22T12:58:45.807Z,29.60
2019-04-22T13:01:15.252Z,29.60
2019-04-22T13:03:44.791Z,29.70
2019-04-22T13:06:14.276Z,29.90
2019-04-22T13:08:43.720Z,30.10
2019-04-22T13:11:17.931Z,30.10
2019-04-22T13:13:45.130Z,30.00
2019-04-22T13:16:15.390Z,30.10
2019-04-22T13:18:53.137Z,30.20
2019-04-22T13:21:15.719Z,30.00
2019-04-22T13:23:45.011Z,29.90
2019-04-22T13:26:15.129Z,29.70
2019-04-22T13:28:45.115Z,29.70
2019-04-22T13:31:15.862Z,29.70
2019-04-22T13:33:46.679Z,29.70
2019-04-22T13:36:19.031Z,30.10
2019-04-22T13:38:48.919Z,30.20
2019-04-22T13:41:28.933Z,30.20
2019-04-22T13:43:50.945Z,30.20
2019-04-22T13:46:21.864Z,30.10
2019-04-22T13:51:52.983Z,29.90
2019-04-22T13:54:13.650Z,30.10
2019-04-22T13:56:43.814Z,28.80
2019-04-22T13:59:07.014Z,28.40
2019-04-22T14:01:28.309Z,28.30
2019-04-22T14:04:02.686Z,28.30
2019-04-22T14:06:32.324Z,28.40
2019-04-22T14:09:03.121Z,28.40
2019-04-22T14:11:43.419Z,28.60
2019-04-22T14:14:04.974Z,28.80
2019-04-22T14:16:35.279Z,29.00
2019-04-22T14:19:05.665Z,29.50
2019-04-22T14:21:36.659Z,29.80
2019-04-22T14:24:07.353Z,29.80
2019-04-22T14:26:52.397Z,29.70
2019-04-22T14:29:08.173Z,29.50
2019-04-22T14:31:38.297Z,29.30
2019-04-22T14:34:09.600Z,29.20
2019-04-22T14:36:39.283Z,28.80
2019-04-22T14:39:10.300Z,28.80
2019-04-22T14:41:55.120Z,29.00
2019-04-22T14:47:09.211Z,30.00
2019-04-22T14:49:36.462Z,30.20
2019-04-22T14:52:10.777Z,29.90
2019-04-22T14:54:31.074Z,29.70
2019-04-22T14:56:46.654Z,29.80
2019-04-22T14:59:16.732Z,29.50
2019-04-22T15:01:47.468Z,29.60
2019-04-22T15:04:17.322Z,29.60
2019-04-22T15:06:48.917Z,29.90
2019-04-22T15:09:17.891Z,29.70
2019-04-22T15:12:00.793Z,29.70
2019-04-22T15:14:19.414Z,29.60
2019-04-22T15:17:00.771Z,29.70
2019-04-22T15:19:38.040Z,29.80
2019-04-22T15:22:08.448Z,29.80
2019-04-22T15:24:38.787Z,29.70
2019-04-22T15:27:08.739Z,29.70
2019-04-22T15:29:39.054Z,29.80
2019-04-22T15:32:09.373Z,30.00
2019-04-22T15:34:39.536Z,30.00
2019-04-22T15:37:08.923Z,29.80
2019-04-22T15:39:39.447Z,29.70
2019-04-22T15:42:14.579Z,29.50
2019-04-22T15:44:40.040Z,29.30
2019-04-22T15:47:09.306Z,29.50
2019-04-22T15:49:39.990Z,29.50
2019-04-22T15:52:10.422Z,29.30
2019-04-22T15:54:39.974Z,28.90
2019-04-22T15:57:10.879Z,28.60
2019-04-22T15:59:59.247Z,28.40
2019-04-22T16:02:12.078Z,28.30
2019-04-22T16:04:41.498Z,28.00
2019-04-22T16:07:10.936Z,27.90
2019-04-22T16:09:41.648Z,27.70
2019-04-22T16:12:18.788Z,27.50
2019-04-22T16:14:47.763Z,27.20
2019-04-22T16:17:14.631Z,26.90
2019-04-22T16:19:45.177Z,26.60
2019-04-22T16:22:18.956Z,26.50
2019-04-22T16:24:52.042Z,26.50
2019-04-22T16:27:24.563Z,26.40
2019-04-22T16:29:55.189Z,26.40
2019-04-22T16:32:25.505Z,26.30
2019-04-22T16:34:54.898Z,26.00
2019-04-22T16:37:25.058Z,25.80
2019-04-22T16:39:54.803Z,25.50
2019-04-22T16:42:34.128Z,25.30
2019-04-22T16:44:55.510Z,25.10
2019-04-22T16:47:25.699Z,25.00
2019-04-22T16:49:55.401Z,25.00
2019-04-22T16:52:25.941Z,25.00
2019-04-22T16:54:56.526Z,25.00
2019-04-22T16:57:26.209Z,25.00
2019-04-22T16:59:55.479Z,24.80
2019-04-22T17:02:30.622Z,24.70
2019-04-22T17:05:02.222Z,24.60
2019-04-22T17:07:31.879Z,24.50
2019-04-22T17:10:01.937Z,24.40
2019-04-22T17:12:43.728Z,24.20
2019-04-22T17:15:07.923Z,24.20
2019-04-22T17:17:33.387Z,24.20
2019-04-22T17:20:03.102Z,24.10
2019-04-22T17:22:33.590Z,24.00
2019-04-22T17:25:04.445Z,23.90
2019-04-22T17:27:34.576Z,23.80
2019-04-22T17:30:08.486Z,23.70
2019-04-22T17:32:39.764Z,23.70
2019-04-22T17:35:10.372Z,23.60
2019-04-22T17:37:41.449Z,23.50
2019-04-22T17:40:30.462Z,23.40
2019-04-22T17:43:06.716Z,23.30
2019-04-22T17:45:55.817Z,23.30
2019-04-22T17:48:31.158Z,23.20
2019-04-22T17:51:14.506Z,23.10
2019-04-22T17:53:40.356Z,23.00
2019-04-22T17:56:08.600Z,22.90
2019-04-22T17:58:43.563Z,22.90
2019-04-22T18:01:11.438Z,22.80
2019-04-22T18:03:28.795Z,22.70
2019-04-22T18:05:55.984Z,22.70
2019-04-22T18:08:42.212Z,22.60
2019-04-22T18:11:20.893Z,22.50
2019-04-22T18:13:44.077Z,22.40
2019-04-22T18:16:19.649Z,22.40
2019-04-22T18:18:50.330Z,22.30
2019-04-22T18:21:14.694Z,22.20
2019-04-22T18:23:41.788Z,22.10
2019-04-22T18:26:20.102Z,21.90
2019-04-22T18:28:54.311Z,21.60
2019-04-22T18:31:20.110Z,21.30
2019-04-22T18:33:50.391Z,21.00
2019-04-22T18:36:23.834Z,20.80
2019-04-22T18:41:23.219Z,20.40
2019-04-22T18:43:58.899Z,20.30
2019-04-22T18:46:27.012Z,20.10
2019-04-22T18:49:00.617Z,20.00
2019-04-22T18:51:45.338Z,19.80
2019-04-22T18:54:18.589Z,19.70
2019-04-22T18:56:58.450Z,19.70
2019-04-22T18:59:18.395Z,19.50
2019-04-22T19:01:41.923Z,19.40
2019-04-22T19:04:18.901Z,19.40
2019-04-22T19:06:58.672Z,19.30
2019-04-22T19:09:45.359Z,19.20
2019-04-22T19:12:25.619Z,19.10
2019-04-22T19:14:45.313Z,18.90
2019-04-22T19:17:21.567Z,18.90
2019-04-22T19:19:49.808Z,18.80
2019-04-22T19:22:09.696Z,18.70
2019-04-22T19:24:39.559Z,18.60
2019-04-22T19:27:15.684Z,18.60
2019-04-22T19:29:46.753Z,18.50
2019-04-22T19:32:14.746Z,18.40
2019-04-22T19:34:47.719Z,18.40
2019-04-22T19:37:20.672Z,18.30
2019-04-22T19:40:04.963Z,18.20
2019-04-22T19:42:38.164Z,18.10
2019-04-22T19:44:55.327Z,18.00
2019-04-22T19:47:50.487Z,17.90
2019-04-22T19:52:53.235Z,17.90
2019-04-22T19:55:07.636Z,17.80
2019-04-22T19:57:42.353Z,17.80
2019-04-22T20:00:17.104Z,17.70
2019-04-22T20:02:53.224Z,17.70
2019-04-22T20:05:37.262Z,17.60
2019-04-22T20:08:12.594Z,17.50
2019-04-22T20:10:44.406Z,17.50
2019-04-22T20:13:15.076Z,17.40
2019-04-22T20:15:37.174Z,17.30
2019-04-22T20:18:34.405Z,17.30
2019-04-22T20:20:47.635Z,17.20
2019-04-22T20:23:15.988Z,17.20
2019-04-22T20:25:48.699Z,17.10
2019-04-22T20:28:25.655Z,17.10
2019-04-22T20:30:55.475Z,17.00
2019-04-22T20:33:29.273Z,16.90
2019-04-22T20:36:02.250Z,16.90
2019-04-22T20:38:28.138Z,16.80
2019-04-22T20:40:55.304Z,16.80
2019-04-22T20:43:36.833Z,16.80
2019-04-22T20:46:05.877Z,16.70
2019-04-22T20:48:30.657Z,16.70
2019-04-22T20:51:07.655Z,16.60
2019-04-22T20:53:38.060Z,16.60
2019-04-22T20:56:08.405Z,16.60
2019-04-22T20:58:42.795Z,16.50
2019-04-22T21:00:59.330Z,16.50
2019-04-22T21:03:31.901Z,16.40
2019-04-22T21:06:07.210Z,16.40
2019-04-22T21:08:42.102Z,16.40
2019-04-22T21:11:12.666Z,16.40
2019-04-22T21:13:41.098Z,16.30
2019-04-22T21:16:20.511Z,16.20
2019-04-22T21:18:37.554Z,16.10
2019-04-22T21:21:20.430Z,16.10
2019-04-22T21:23:44.917Z,16.00
2019-04-22T21:26:15.022Z,16.00
2019-04-22T21:28:49.016Z,16.00
2019-04-22T21:31:23.773Z,15.90
2019-04-22T21:33:51.966Z,15.80
2019-04-22T21:36:46.252Z,15.80
2019-04-22T21:38:53.108Z,15.70
2019-04-22T21:41:23.233Z,15.70
2019-04-22T21:43:52.554Z,15.70
2019-04-22T21:46:28.874Z,15.60
2019-04-22T21:49:00.302Z,15.60
2019-04-22T21:51:31.649Z,15.60
2019-04-22T21:54:04.218Z,15.60
2019-04-22T21:56:42.346Z,15.50
2019-04-22T21:59:06.815Z,15.50
2019-04-22T22:01:49.988Z,15.40
2019-04-22T22:04:15.215Z,15.30
2019-04-22T22:06:37.361Z,15.30
2019-04-22T22:09:15.546Z,15.30
2019-04-22T22:11:44.544Z,15.20
2019-04-22T22:14:12.359Z,15.20
2019-04-22T22:16:38.350Z,15.10
2019-04-22T22:19:20.792Z,15.10
2019-04-22T22:21:51.355Z,15.00
2019-04-22T22:24:23.007Z,15.00
2019-04-22T22:26:54.209Z,14.90
2019-04-22T22:32:00.091Z,14.90
2019-04-22T22:34:25.017Z,14.80
2019-04-22T22:36:50.710Z,14.80
2019-04-22T22:39:21.812Z,14.80
2019-04-22T22:41:41.754Z,14.70
2019-04-22T22:44:18.260Z,14.70
2019-04-22T22:47:01.849Z,14.70
2019-04-22T22:49:35.868Z,14.70
2019-04-22T22:52:34.517Z,14.70
2019-04-22T22:54:34.145Z,14.70
2019-04-22T22:57:17.951Z,14.60
2019-04-22T22:59:40.284Z,14.60
2019-04-22T23:02:08.074Z,14.50
2019-04-22T23:04:46.022Z,14.50
2019-04-22T23:07:17.270Z,14.50
2019-04-22T23:09:44.268Z,14.40
2019-04-22T23:12:24.847Z,14.50
2019-04-22T23:14:44.232Z,14.40
2019-04-22T23:17:05.169Z,14.40
2019-04-22T23:19:28.041Z,14.40
2019-04-22T23:22:05.343Z,14.30
2019-04-22T23:24:48.179Z,14.30
2019-04-22T23:27:43.215Z,14.30
2019-04-22T23:30:12.063Z,14.30
2019-04-22T23:32:39.932Z,14.20
2019-04-22T23:35:22.545Z,14.20
2019-04-22T23:38:00.105Z,14.20
2019-04-22T23:42:58.710Z,14.20
2019-04-22T23:45:50.259Z,14.10
2019-04-22T23:48:17.101Z,14.10
2019-04-22T23:50:50.823Z,14.10
2019-04-22T23:53:55.481Z,14.10
2019-04-22T23:56:00.530Z,14.10
2019-04-22T23:58:47.590Z,14.00
